Airfield :
LOGIN :

Register | Disclaimer

   EN    FR    IT 

 










Legend :    VFR   Marginal VFR   IFR   Intensive IFR   Very Intensive IFR
Visi :
Ceiling :
>= 8 km
>= 3000ft
5 to 8 km
1000 to 3000 ft
1500m to 5 km
500 to 1000 ft
800 to 1500m
200 to 500 ft
< 800m
< 200 ft
Symbols :   Thunderstorms  Fog  Heavy snow  Heavy precipitations  Wind > 20 kt
SIGMETs :     Misc.  Thunderstorms  Icing  Turbulence  Mountain Waves  Volcanic Ashes







- Airport Elevation : 1197 ft
- IATA code : SPM


ETAD - Spangdahlem Ab

CURRENT METAR :
  • 262258Z AUTO 29003KT 9999 BKN100 03/M02 A2993 RMK AO2 SLP135 T00331017 401160008 TSNO $

EXPIRED METARs :
  • 262158Z AUTO 32003KT 9999 FEW110 04/M01 A2993 RMK AO2 SLP134 T00361014 TSNO $
  • 262058Z AUTO 34004KT 9999 CLR 04/M02 A2993 RMK AO2 SLP135 60000 T00441016 52014 TSNO $

TAF TAF ETAD
Valid from the 26 at 19:00 until the 28 at 01:00 UTC


261902Z 2619/2801 02009KT 9999 SCT060 BKN070 620709 621602 QNH2986INS
TEMPO 2621/2700 8000 -SHRA
BECMG 2702/2703 VRB06KT 8000 BR FEW020 BKN050 620509 621404 QNH2994INS
BECMG 2705/2706 VRB06KT 9999 NSW SCT050 QNH2994INS
BECMG 2711/2712 VRB06KT 8000 -SHRA BKN050 QNH2992INS
BECMG 2717/2718 VRB06KT 9999 NSW BKN060 QNH2992INS TX11/2715Z TN00/2703Z LAST NO AMDS AFT 2620 NEXT 2704
No reported NOTAMs for that airfield.



MET'MAP, your aeronautical weather chart ! - Copyright ORBIFLY December 2007 - Disclaimer

ORBIFLY MET'MAP TEAM :

Programming & Development : Alexandra Zaïnal
Concept & Development : Baudouin d'Aumeries
Co-Development & Prog : Marc-Olivier Méhu
Technical & hardware support : Manuel Goepfert

Contact : metmap@orbifly.com




SOURCES & CREDITS :

   NOAA